Time;durP1;ratioP1;P1;durP2;ratioP2;P2;SDS_P1;SDS_P2;PMS_P1;PMS_P2;Temp;Humidity;BMP_temperature;BMP_pressure;BME280_temperature;BME280_humidity;BME280_pressure;Samples;Min_cycle;Max_cycle;Signal;HPM_P1;HPM_P2
2023/06/21 00:00:00;;;;;;;38.92;35.55;;;;;;;;;;5051878;28;20083;-56
2023/06/21 00:02:28;;;;;;;39.47;35.88;;;;;;;;;;5051823;28;20029;-55
2023/06/21 00:04:57;;;;;;;38.63;35.33;;;;;;;;;;5051570;28;20120;-56
2023/06/21 00:07:23;;;;;;;39.25;35.85;;;;;;;;;;5051595;28;20112;-54
2023/06/21 00:09:50;;;;;;;39.88;36.38;;;;;;;;;;5051752;28;20385;-53
2023/06/21 00:12:16;;;;;;;38.50;35.00;;;;;;;;;;5051602;28;20104;-53
2023/06/21 00:14:42;;;;;;;40.03;36.50;;;;;;;;;;5051507;28;20474;-53
2023/06/21 00:17:08;;;;;;;39.85;36.28;;;;;;;;;;5051706;28;20037;-57
2023/06/21 00:19:34;;;;;;;39.78;36.38;;;;;;;;;;5051469;28;20025;-50
2023/06/21 00:22:00;;;;;;;38.88;35.58;;;;;;;;;;5051527;28;20040;-51
2023/06/21 00:24:26;;;;;;;40.03;36.55;;;;;;;;;;5051566;28;20477;-55
2023/06/21 00:26:53;;;;;;;40.25;36.72;;;;;;;;;;5051473;28;20065;-52
2023/06/21 00:29:19;;;;;;;41.45;37.85;;;;;;;;;;5051187;28;20108;-56
2023/06/21 00:31:45;;;;;;;41.55;37.92;;;;;;;;;;5050084;28;20114;-52
2023/06/21 00:34:11;;;;;;;40.92;37.28;;;;;;;;;;5051530;28;20457;-49
2023/06/21 00:36:41;;;;;;;41.22;37.65;;;;;;;;;;5051574;28;20100;-54
2023/06/21 00:39:08;;;;;;;43.60;39.80;;;;;;;;;;5051513;28;20021;-55
2023/06/21 00:41:34;;;;;;;41.90;38.28;;;;;;;;;;5051388;28;20461;-56
2023/06/21 00:44:00;;;;;;;44.20;40.50;;;;;;;;;;5051135;28;20132;-55
2023/06/21 00:46:26;;;;;;;43.67;39.80;;;;;;;;;;5051287;28;20033;-56
2023/06/21 00:48:52;;;;;;;43.63;39.95;;;;;;;;;;5051755;28;20075;-62
2023/06/21 00:51:18;;;;;;;43.35;39.55;;;;;;;;;;5051488;28;20052;-56
2023/06/21 00:53:45;;;;;;;43.70;39.80;;;;;;;;;;5051250;28;20505;-55
2023/06/21 00:56:11;;;;;;;44.25;40.67;;;;;;;;;;5049828;28;20067;-56
2023/06/21 00:58:37;;;;;;;44.00;40.35;;;;;;;;;;5051319;28;20040;-55
2023/06/21 01:01:04;;;;;;;45.50;41.53;;;;;;;;;;5052476;28;20037;-52
2023/06/21 01:03:30;;;;;;;45.35;41.45;;;;;;;;;;5055298;28;20496;-58
2023/06/21 01:06:04;;;;;;;45.50;41.60;;;;;;;;;;5056373;28;20044;-56
2023/06/21 01:08:48;;;;;;;43.78;39.85;;;;;;;;;;5054861;28;20515;-53
2023/06/21 01:11:17;;;;;;;44.10;40.28;;;;;;;;;;5056132;28;20127;-56
2023/06/21 01:14:02;;;;;;;44.70;40.88;;;;;;;;;;5055987;28;20032;-57
2023/06/21 01:16:34;;;;;;;43.45;39.80;;;;;;;;;;5055736;28;20029;-54
2023/06/21 01:19:01;;;;;;;43.25;39.55;;;;;;;;;;5055050;28;20044;-53
2023/06/21 01:21:28;;;;;;;44.83;40.95;;;;;;;;;;5054744;28;20116;-56
2023/06/21 01:24:03;;;;;;;43.78;39.97;;;;;;;;;;5056002;28;20396;-59
2023/06/21 01:26:29;;;;;;;44.50;40.63;;;;;;;;;;5055098;28;20040;-59
2023/06/21 01:29:12;;;;;;;46.25;41.85;;;;;;;;;;5055538;28;20462;-59
2023/06/21 01:31:40;;;;;;;45.13;41.08;;;;;;;;;;5055399;28;20021;-58
2023/06/21 01:34:08;;;;;;;41.30;37.60;;;;;;;;;;5054688;28;20102;-59
2023/06/21 01:36:34;;;;;;;39.60;36.20;;;;;;;;;;5053308;28;20021;-58
2023/06/21 01:39:00;;;;;;;39.95;36.53;;;;;;;;;;5054553;28;20024;-59
2023/06/21 01:41:27;;;;;;;39.33;35.90;;;;;;;;;;5054389;28;20061;-60
2023/06/21 01:43:56;;;;;;;39.03;35.58;;;;;;;;;;5054281;28;20029;-57
2023/06/21 01:46:23;;;;;;;39.35;35.45;;;;;;;;;;5054336;28;20036;-60
2023/06/21 01:48:49;;;;;;;37.95;34.60;;;;;;;;;;5054009;28;20155;-56
2023/06/21 01:51:16;;;;;;;35.63;32.38;;;;;;;;;;5054293;28;20094;-59
2023/06/21 01:53:41;;;;;;;34.80;31.63;;;;;;;;;;5054107;28;20057;-57
2023/06/21 01:56:10;;;;;;;34.35;31.20;;;;;;;;;;5053974;28;20065;-60
2023/06/21 01:58:36;;;;;;;32.42;29.52;;;;;;;;;;5054180;28;20056;-59
2023/06/21 02:01:05;;;;;;;33.88;30.73;;;;;;;;;;5054241;28;20029;-58
2023/06/21 02:03:33;;;;;;;33.92;30.73;;;;;;;;;;5052661;28;20115;-58
2023/06/21 02:06:03;;;;;;;33.93;30.53;;;;;;;;;;5053782;28;20029;-57
2023/06/21 02:08:29;;;;;;;32.70;29.70;;;;;;;;;;5053872;28;20053;-59
2023/06/21 02:10:55;;;;;;;32.75;29.70;;;;;;;;;;5054003;28;20031;-60
2023/06/21 02:13:21;;;;;;;31.48;28.48;;;;;;;;;;5052884;28;20108;-58
2023/06/21 02:15:47;;;;;;;29.83;26.92;;;;;;;;;;5038996;28;20128;-60
2023/06/21 02:18:14;;;;;;;28.25;25.25;;;;;;;;;;5033962;28;20014;-58
2023/06/21 02:20:40;;;;;;;32.15;26.27;;;;;;;;;;5034012;28;20446;-60
2023/06/21 02:23:06;;;;;;;28.33;25.33;;;;;;;;;;5033617;28;20428;-56
2023/06/21 02:25:36;;;;;;;28.92;25.30;;;;;;;;;;5033506;28;20473;-59
2023/06/21 02:28:02;;;;;;;28.83;24.83;;;;;;;;;;5033559;28;20159;-60
2023/06/21 02:30:29;;;;;;;29.15;24.30;;;;;;;;;;5033570;28;20025;-59
2023/06/21 02:32:55;;;;;;;29.08;23.77;;;;;;;;;;5033459;28;20076;-59
2023/06/21 02:35:21;;;;;;;28.90;24.40;;;;;;;;;;5033160;28;20033;-59
2023/06/21 02:37:47;;;;;;;27.73;22.38;;;;;;;;;;5034771;28;20033;-58
2023/06/21 02:40:13;;;;;;;29.02;22.42;;;;;;;;;;5044699;28;20056;-60
2023/06/21 02:42:40;;;;;;;32.00;23.00;;;;;;;;;;5047544;28;20025;-60
2023/06/21 02:45:06;;;;;;;27.95;22.67;;;;;;;;;;5052832;28;20048;-60
2023/06/21 02:47:32;;;;;;;29.67;24.42;;;;;;;;;;5048569;28;20032;-59
2023/06/21 02:49:58;;;;;;;30.20;23.48;;;;;;;;;;5053195;28;20036;-59
2023/06/21 02:52:24;;;;;;;29.77;24.08;;;;;;;;;;5047993;28;20029;-58
2023/06/21 02:54:52;;;;;;;30.55;24.50;;;;;;;;;;5039775;28;20104;-60
2023/06/21 02:57:18;;;;;;;33.55;25.15;;;;;;;;;;5041366;28;20500;-60
2023/06/21 02:59:44;;;;;;;33.10;25.17;;;;;;;;;;5049282;28;20323;-58
2023/06/21 03:02:11;;;;;;;30.75;25.75;;;;;;;;;;5054717;28;20085;-60
2023/06/21 03:04:37;;;;;;;31.15;25.50;;;;;;;;;;5055457;28;20107;-60
2023/06/21 03:07:05;;;;;;;31.92;25.50;;;;;;;;;;5051432;28;20022;-59
2023/06/21 03:09:31;;;;;;;32.53;25.40;;;;;;;;;;5051914;28;20024;-57
2023/06/21 03:11:57;;;;;;;32.00;25.83;;;;;;;;;;5053076;28;20017;-59
2023/06/21 03:14:23;;;;;;;32.40;26.85;;;;;;;;;;5052589;28;20519;-60
2023/06/21 03:16:49;;;;;;;30.98;25.63;;;;;;;;;;5051432;28;20021;-57
2023/06/21 03:19:17;;;;;;;33.80;27.48;;;;;;;;;;5051329;28;20434;-56
2023/06/21 03:21:43;;;;;;;38.25;29.27;;;;;;;;;;5045661;28;20037;-60
2023/06/21 03:24:09;;;;;;;35.90;27.65;;;;;;;;;;5052076;28;20529;-58
2023/06/21 03:26:35;;;;;;;39.17;30.50;;;;;;;;;;5052308;28;20071;-57
2023/06/21 03:29:02;;;;;;;37.70;29.48;;;;;;;;;;5051102;28;20029;-59
2023/06/21 03:31:29;;;;;;;40.83;30.23;;;;;;;;;;5052365;28;20104;-56
2023/06/21 03:33:55;;;;;;;39.88;30.40;;;;;;;;;;5050870;28;20107;-57
2023/06/21 03:36:21;;;;;;;41.30;32.38;;;;;;;;;;5052105;28;20021;-58
2023/06/21 03:38:47;;;;;;;42.85;31.52;;;;;;;;;;5052235;28;20041;-58
2023/06/21 03:41:13;;;;;;;43.15;33.05;;;;;;;;;;5052220;28;20098;-55
2023/06/21 03:43:39;;;;;;;45.35;31.77;;;;;;;;;;5051558;28;20025;-57
2023/06/21 03:46:05;;;;;;;40.70;31.42;;;;;;;;;;5051711;28;20500;-57
2023/06/21 03:48:31;;;;;;;42.00;30.85;;;;;;;;;;5051986;28;20032;-56
2023/06/21 03:50:57;;;;;;;40.95;30.40;;;;;;;;;;5052149;28;20183;-59
2023/06/21 03:53:27;;;;;;;39.50;28.52;;;;;;;;;;5052123;28;20057;-54
2023/06/21 03:55:53;;;;;;;37.08;29.42;;;;;;;;;;5052186;28;20025;-59
2023/06/21 03:58:19;;;;;;;37.28;28.50;;;;;;;;;;5058212;28;20477;-59
2023/06/21 04:00:45;;;;;;;38.13;27.58;;;;;;;;;;5060761;28;20034;-54
2023/06/21 04:03:11;;;;;;;37.47;27.83;;;;;;;;;;5056213;28;20029;-57
2023/06/21 04:05:37;;;;;;;34.08;27.08;;;;;;;;;;5056132;28;20085;-52
2023/06/21 04:08:03;;;;;;;31.60;26.02;;;;;;;;;;5053347;28;20068;-56
2023/06/21 04:10:29;;;;;;;35.72;26.80;;;;;;;;;;5051920;28;20443;-56
2023/06/21 04:12:55;;;;;;;33.50;24.60;;;;;;;;;;5051752;28;20025;-58
2023/06/21 04:15:21;;;;;;;29.42;23.42;;;;;;;;;;5050197;28;20048;-59
2023/06/21 04:17:49;;;;;;;32.10;24.50;;;;;;;;;;5051740;28;20031;-57
2023/06/21 04:20:15;;;;;;;31.60;24.90;;;;;;;;;;5051562;28;20032;-55
2023/06/21 04:22:42;;;;;;;32.78;25.30;;;;;;;;;;5051066;28;20037;-59
2023/06/21 04:25:08;;;;;;;31.80;24.75;;;;;;;;;;5051091;28;20036;-57
2023/06/21 04:27:34;;;;;;;33.63;25.95;;;;;;;;;;5051447;28;20033;-54
2023/06/21 04:30:00;;;;;;;34.53;23.88;;;;;;;;;;5051576;28;20029;-58
2023/06/21 04:32:32;;;;;;;34.20;24.48;;;;;;;;;;5051465;28;20031;-58
2023/06/21 04:34:59;;;;;;;31.30;23.55;;;;;;;;;;5050535;28;20481;-56
2023/06/21 04:37:26;;;;;;;29.42;23.92;;;;;;;;;;5057962;28;20112;-56
2023/06/21 04:39:52;;;;;;;30.90;23.98;;;;;;;;;;5057966;28;20080;-55
2023/06/21 04:42:20;;;;;;;31.25;23.63;;;;;;;;;;5057892;28;20037;-55
2023/06/21 04:44:49;;;;;;;31.00;25.02;;;;;;;;;;5057759;28;20029;-54
2023/06/21 04:47:16;;;;;;;32.40;25.77;;;;;;;;;;5057896;28;20104;-57
2023/06/21 04:49:42;;;;;;;31.33;23.15;;;;;;;;;;5057616;28;20104;-55
2023/06/21 04:52:09;;;;;;;30.38;22.92;;;;;;;;;;5057863;28;20032;-59
2023/06/21 04:54:36;;;;;;;29.92;24.00;;;;;;;;;;5056331;28;20097;-58
2023/06/21 04:57:03;;;;;;;29.95;22.70;;;;;;;;;;5050466;28;20028;-59
2023/06/21 04:59:30;;;;;;;29.98;24.38;;;;;;;;;;5051487;28;20022;-59
2023/06/21 05:01:56;;;;;;;28.15;22.45;;;;;;;;;;5057948;28;20707;-56
2023/06/21 05:04:22;;;;;;;29.17;23.83;;;;;;;;;;5057720;28;20068;-56
2023/06/21 05:06:48;;;;;;;31.88;23.85;;;;;;;;;;5056125;28;20036;-58
2023/06/21 05:09:14;;;;;;;31.42;24.10;;;;;;;;;;5030702;28;20029;-57
2023/06/21 05:11:40;;;;;;;27.95;22.30;;;;;;;;;;5050818;28;20534;-56
2023/06/21 05:14:06;;;;;;;28.65;22.20;;;;;;;;;;5057423;28;20055;-59
2023/06/21 05:16:32;;;;;;;27.50;22.83;;;;;;;;;;5056607;28;20449;-59
2023/06/21 05:18:58;;;;;;;27.20;21.40;;;;;;;;;;5057878;28;20111;-56
2023/06/21 05:21:24;;;;;;;32.17;23.65;;;;;;;;;;5057334;28;20071;-59
2023/06/21 05:23:50;;;;;;;28.65;23.08;;;;;;;;;;5057285;28;20075;-56
2023/06/21 05:26:16;;;;;;;28.65;22.83;;;;;;;;;;5055948;28;20025;-56
2023/06/21 05:28:42;;;;;;;28.98;22.30;;;;;;;;;;5057336;28;20056;-58
2023/06/21 05:31:09;;;;;;;28.67;21.70;;;;;;;;;;5057375;28;20056;-58
2023/06/21 05:33:35;;;;;;;27.23;22.17;;;;;;;;;;5057090;28;20017;-57
2023/06/21 05:36:02;;;;;;;27.85;22.70;;;;;;;;;;5056892;28;20036;-54
2023/06/21 05:38:28;;;;;;;29.85;22.50;;;;;;;;;;5057160;28;20036;-57
2023/06/21 05:40:54;;;;;;;32.33;24.50;;;;;;;;;;5057391;28;20025;-58
2023/06/21 05:43:20;;;;;;;27.92;23.70;;;;;;;;;;5048438;28;20628;-60
2023/06/21 05:45:45;;;;;;;27.13;23.48;;;;;;;;;;5056128;28;20029;-59
2023/06/21 05:48:11;;;;;;;29.20;22.88;;;;;;;;;;5054278;28;20417;-56
2023/06/21 05:50:37;;;;;;;32.03;22.80;;;;;;;;;;5053822;28;20142;-59
2023/06/21 05:53:03;;;;;;;28.48;22.50;;;;;;;;;;5050551;28;20497;-60
2023/06/21 05:55:29;;;;;;;29.90;24.50;;;;;;;;;;5053689;28;20128;-59
2023/06/21 05:57:55;;;;;;;31.45;24.05;;;;;;;;;;5053887;28;20029;-56
2023/06/21 06:00:21;;;;;;;28.65;22.92;;;;;;;;;;5052891;28;20024;-60
2023/06/21 06:02:47;;;;;;;33.22;23.30;;;;;;;;;;5053840;28;20035;-57
2023/06/21 06:05:16;;;;;;;30.45;22.98;;;;;;;;;;5053460;28;20041;-61
2023/06/21 06:07:42;;;;;;;31.08;22.73;;;;;;;;;;5048494;28;20063;-58
2023/06/21 06:10:09;;;;;;;32.95;25.05;;;;;;;;;;5044855;28;20341;-58
2023/06/21 06:12:35;;;;;;;30.27;23.58;;;;;;;;;;5043716;28;20928;-56
2023/06/21 06:15:01;;;;;;;30.13;24.75;;;;;;;;;;5053040;28;20096;-60
2023/06/21 06:17:27;;;;;;;27.90;24.45;;;;;;;;;;5039747;28;20071;-58
2023/06/21 06:19:53;;;;;;;32.10;26.60;;;;;;;;;;5033346;28;20022;-58
2023/06/21 06:22:19;;;;;;;30.25;26.10;;;;;;;;;;5033245;28;20034;-60
2023/06/21 06:24:47;;;;;;;31.52;24.02;;;;;;;;;;5043819;28;20527;-59
2023/06/21 06:27:13;;;;;;;27.17;23.00;;;;;;;;;;5053584;28;20129;-58
2023/06/21 06:29:40;;;;;;;27.83;22.38;;;;;;;;;;5053451;28;20428;-57
2023/06/21 06:32:06;;;;;;;27.95;23.05;;;;;;;;;;5052224;28;20082;-59
2023/06/21 06:34:32;;;;;;;26.50;21.52;;;;;;;;;;5051790;28;20017;-59
2023/06/21 06:36:58;;;;;;;25.83;22.02;;;;;;;;;;5053231;28;20056;-58
2023/06/21 06:39:24;;;;;;;27.98;22.40;;;;;;;;;;5053407;28;20039;-56
2023/06/21 06:41:50;;;;;;;26.10;21.77;;;;;;;;;;5049580;28;20466;-57
2023/06/21 06:44:16;;;;;;;26.88;22.30;;;;;;;;;;5033253;28;20026;-60
2023/06/21 06:46:42;;;;;;;27.15;22.42;;;;;;;;;;5032730;28;20017;-54
2023/06/21 06:49:08;;;;;;;27.10;21.10;;;;;;;;;;5033011;28;20135;-59
2023/06/21 06:51:34;;;;;;;26.88;20.63;;;;;;;;;;5014932;28;20067;-56
2023/06/21 06:54:00;;;;;;;27.33;20.42;;;;;;;;;;5032699;28;20379;-58
2023/06/21 06:56:26;;;;;;;29.00;20.33;;;;;;;;;;5032830;28;20022;-59
2023/06/21 06:58:52;;;;;;;26.83;20.92;;;;;;;;;;5034561;28;20428;-57
2023/06/21 07:01:18;;;;;;;26.55;20.45;;;;;;;;;;5048450;28;20066;-56
2023/06/21 07:03:44;;;;;;;25.48;20.05;;;;;;;;;;5052519;28;20178;-59
2023/06/21 07:06:10;;;;;;;28.48;21.00;;;;;;;;;;5052335;28;20509;-58
2023/06/21 07:08:36;;;;;;;27.08;21.80;;;;;;;;;;5051104;28;20036;-56
2023/06/21 07:11:02;;;;;;;25.25;20.88;;;;;;;;;;5046661;28;20307;-59
2023/06/21 07:13:28;;;;;;;31.90;22.48;;;;;;;;;;5050762;28;20079;-58
2023/06/21 07:15:54;;;;;;;26.77;20.13;;;;;;;;;;5052116;28;20397;-56
2023/06/21 07:18:20;;;;;;;24.58;19.38;;;;;;;;;;5054402;28;20036;-64
2023/06/21 07:20:46;;;;;;;26.08;21.17;;;;;;;;;;5056502;28;20021;-63
2023/06/21 07:23:12;;;;;;;27.42;20.58;;;;;;;;;;5091833;22;20492;-52
2023/06/21 07:25:38;;;;;;;25.35;20.80;;;;;;;;;;5072294;28;20039;-51
2023/06/21 07:28:04;;;;;;;25.88;21.10;;;;;;;;;;5091268;28;20035;-53
2023/06/21 07:30:30;;;;;;;26.33;20.77;;;;;;;;;;5091634;28;20157;-56
2023/06/21 07:32:56;;;;;;;25.92;20.75;;;;;;;;;;5091415;28;20059;-55
2023/06/21 07:35:22;;;;;;;27.73;22.23;;;;;;;;;;5090816;28;20016;-56
2023/06/21 07:37:48;;;;;;;26.58;21.58;;;;;;;;;;5084707;28;20052;-54
2023/06/21 07:40:14;;;;;;;27.65;22.95;;;;;;;;;;5082722;28;20503;-54
2023/06/21 07:42:40;;;;;;;25.95;21.92;;;;;;;;;;5091206;28;20024;-55
2023/06/21 07:45:07;;;;;;;27.27;21.92;;;;;;;;;;5090852;28;20561;-55
2023/06/21 07:47:33;;;;;;;28.38;23.80;;;;;;;;;;5087463;28;20076;-52
2023/06/21 07:49:59;;;;;;;28.42;22.75;;;;;;;;;;5068740;28;20031;-52
2023/06/21 07:52:25;;;;;;;28.95;23.73;;;;;;;;;;5060771;28;20043;-56
2023/06/21 07:54:51;;;;;;;27.10;21.75;;;;;;;;;;5090811;28;20444;-56
2023/06/21 07:57:18;;;;;;;26.40;22.23;;;;;;;;;;5091241;28;20092;-50
2023/06/21 07:59:44;;;;;;;29.38;22.17;;;;;;;;;;5068576;28;20435;-54
2023/06/21 08:02:12;;;;;;;26.00;21.15;;;;;;;;;;5077229;28;20472;-55
2023/06/21 08:04:38;;;;;;;25.75;21.90;;;;;;;;;;5076419;28;20035;-54
2023/06/21 08:07:05;;;;;;;25.05;21.40;;;;;;;;;;5087191;28;20062;-55
2023/06/21 08:09:31;;;;;;;27.77;23.13;;;;;;;;;;5082719;28;20024;-51
2023/06/21 08:11:58;;;;;;;26.40;21.70;;;;;;;;;;5066915;28;20024;-56
2023/06/21 08:14:24;;;;;;;24.05;19.10;;;;;;;;;;5069652;28;20024;-52
2023/06/21 08:16:50;;;;;;;23.77;17.92;;;;;;;;;;5071123;28;20073;-55
2023/06/21 08:19:16;;;;;;;25.00;20.05;;;;;;;;;;5052896;28;20111;-54
2023/06/21 08:21:42;;;;;;;24.80;20.05;;;;;;;;;;5070993;28;20072;-56
2023/06/21 08:24:08;;;;;;;29.52;20.50;;;;;;;;;;5051878;28;20044;-51
2023/06/21 08:26:34;;;;;;;26.55;21.95;;;;;;;;;;5070754;28;20111;-50
2023/06/21 08:29:00;;;;;;;28.58;21.98;;;;;;;;;;5070442;28;20028;-51
2023/06/21 08:31:26;;;;;;;25.02;20.13;;;;;;;;;;5070543;28;20029;-54
2023/06/21 08:33:52;;;;;;;25.58;19.55;;;;;;;;;;5081036;28;20043;-55
2023/06/21 08:36:18;;;;;;;25.05;19.10;;;;;;;;;;5089757;28;20020;-55
2023/06/21 08:38:45;;;;;;;24.23;18.92;;;;;;;;;;5091339;28;20089;-55
2023/06/21 08:41:12;;;;;;;22.75;18.05;;;;;;;;;;5091709;28;20164;-55
2023/06/21 08:43:38;;;;;;;23.40;18.33;;;;;;;;;;5073315;28;20032;-56
2023/06/21 08:46:06;;;;;;;22.60;18.30;;;;;;;;;;5091735;28;20021;-58
2023/06/21 08:48:32;;;;;;;24.45;18.42;;;;;;;;;;5091074;28;20020;-56
2023/06/21 08:51:03;;;;;;;21.42;17.00;;;;;;;;;;5090900;28;20031;-57
2023/06/21 08:53:37;;;;;;;22.38;17.45;;;;;;;;;;5090803;28;20024;-58
2023/06/21 08:56:05;;;;;;;21.75;17.33;;;;;;;;;;5091127;28;20091;-59
2023/06/21 08:58:33;;;;;;;22.73;17.73;;;;;;;;;;5090860;28;20392;-60
2023/06/21 09:01:03;;;;;;;20.88;17.58;;;;;;;;;;5090895;28;20416;-59
2023/06/21 09:03:32;;;;;;;21.88;18.17;;;;;;;;;;5090437;28;20134;-64
2023/06/21 09:06:25;;;;;;;23.63;18.48;;;;;;;;;;5090347;28;20028;-64
2023/06/21 09:08:54;;;;;;;22.55;17.50;;;;;;;;;;5087995;28;20040;-64
2023/06/21 09:11:23;;;;;;;23.45;17.25;;;;;;;;;;5077748;28;20109;-63
2023/06/21 09:13:50;;;;;;;21.38;16.50;;;;;;;;;;5070120;28;20040;-64
2023/06/21 09:16:16;;;;;;;23.40;18.83;;;;;;;;;;5051937;28;20027;-64
2023/06/21 09:18:43;;;;;;;23.95;19.48;;;;;;;;;;5069943;28;20036;-64
2023/06/21 09:21:09;;;;;;;25.60;19.23;;;;;;;;;;5069756;28;20048;-64
2023/06/21 09:23:39;;;;;;;24.63;18.52;;;;;;;;;;5073313;28;20142;-62
2023/06/21 09:26:05;;;;;;;21.90;17.42;;;;;;;;;;5073438;28;20032;-64
2023/06/21 09:28:31;;;;;;;21.75;17.00;;;;;;;;;;5074048;28;20500;-60
2023/06/21 09:30:58;;;;;;;22.75;18.08;;;;;;;;;;5055947;28;20047;-56
2023/06/21 09:33:24;;;;;;;23.00;18.45;;;;;;;;;;5073893;28;20051;-59
2023/06/21 09:35:51;;;;;;;21.05;18.08;;;;;;;;;;5073846;28;20021;-59
2023/06/21 09:38:23;;;;;;;23.38;19.83;;;;;;;;;;5073737;28;20070;-60
2023/06/21 09:40:49;;;;;;;23.55;21.02;;;;;;;;;;5073658;28;20035;-58
2023/06/21 09:43:15;;;;;;;24.67;22.05;;;;;;;;;;5073530;28;20028;-58
2023/06/21 09:45:41;;;;;;;25.33;20.17;;;;;;;;;;5073119;28;20036;-60
2023/06/21 09:48:07;;;;;;;25.45;21.10;;;;;;;;;;5072542;28;20033;-57
2023/06/21 09:50:37;;;;;;;25.75;21.52;;;;;;;;;;5073120;28;20028;-59
2023/06/21 09:53:03;;;;;;;27.25;24.35;;;;;;;;;;5073607;28;20044;-59
2023/06/21 09:55:29;;;;;;;26.67;23.88;;;;;;;;;;5073291;28;20496;-59
2023/06/21 09:57:57;;;;;;;27.58;24.60;;;;;;;;;;5073577;28;20016;-58
2023/06/21 10:00:23;;;;;;;24.45;21.85;;;;;;;;;;5073664;28;20435;-58
2023/06/21 10:02:53;;;;;;;27.02;24.13;;;;;;;;;;5073412;28;20060;-58
2023/06/21 10:05:19;;;;;;;24.65;21.90;;;;;;;;;;5055337;28;20097;-58
2023/06/21 10:07:46;;;;;;;24.08;20.35;;;;;;;;;;5074401;28;20552;-56
2023/06/21 10:10:12;;;;;;;23.05;19.65;;;;;;;;;;5073365;28;20477;-56
2023/06/21 10:12:49;;;;;;;22.13;19.05;;;;;;;;;;5073221;28;20446;-57
2023/06/21 10:15:14;;;;;;;24.25;20.70;;;;;;;;;;5072908;28;20036;-55
2023/06/21 10:17:41;;;;;;;25.25;22.25;;;;;;;;;;5073240;28;20021;-57
2023/06/21 10:20:08;;;;;;;24.95;22.17;;;;;;;;;;5054782;28;20067;-58
2023/06/21 10:22:36;;;;;;;24.02;21.50;;;;;;;;;;5072742;28;20512;-59
2023/06/21 10:25:03;;;;;;;25.55;22.50;;;;;;;;;;5072602;28;20493;-60
2023/06/21 10:27:30;;;;;;;26.20;23.38;;;;;;;;;;5071046;28;20052;-58
2023/06/21 10:29:57;;;;;;;25.20;22.50;;;;;;;;;;5082260;28;20012;-59
2023/06/21 10:32:28;;;;;;;25.75;21.48;;;;;;;;;;5081792;28;20517;-54
2023/06/21 10:34:55;;;;;;;23.17;19.65;;;;;;;;;;5075869;28;20024;-57
2023/06/21 10:37:40;;;;;;;25.05;22.35;;;;;;;;;;5092797;28;20093;-56
2023/06/21 10:40:07;;;;;;;24.80;22.15;;;;;;;;;;5092406;28;20027;-57
2023/06/21 10:42:33;;;;;;;23.35;20.85;;;;;;;;;;5089361;28;20140;-59
2023/06/21 10:44:59;;;;;;;23.55;19.17;;;;;;;;;;5081385;28;20488;-59
2023/06/21 10:47:29;;;;;;;24.23;19.08;;;;;;;;;;5069466;28;20035;-62
2023/06/21 10:49:58;;;;;;;22.58;19.77;;;;;;;;;;5084788;28;20020;-60
2023/06/21 10:52:24;;;;;;;21.70;18.63;;;;;;;;;;5092096;28;20099;-59
2023/06/21 10:54:51;;;;;;;25.00;22.40;;;;;;;;;;5091906;28;20095;-60
2023/06/21 10:57:17;;;;;;;23.27;20.77;;;;;;;;;;5092585;28;20036;-61
2023/06/21 10:59:44;;;;;;;24.40;21.17;;;;;;;;;;5076774;28;20029;-60
2023/06/21 11:02:10;;;;;;;25.80;22.10;;;;;;;;;;5060188;28;20035;-59
2023/06/21 11:04:56;;;;;;;24.10;20.30;;;;;;;;;;5072197;28;20056;-60
2023/06/21 11:07:24;;;;;;;23.48;17.58;;;;;;;;;;5080078;28;20484;-60
2023/06/21 11:09:53;;;;;;;22.23;18.48;;;;;;;;;;5074654;28;20041;-63
2023/06/21 11:12:19;;;;;;;21.70;18.17;;;;;;;;;;5072272;28;20117;-63
2023/06/21 11:14:47;;;;;;;22.10;18.88;;;;;;;;;;5054662;28;20028;-63
2023/06/21 11:17:14;;;;;;;23.63;18.50;;;;;;;;;;5072869;28;20027;-62
2023/06/21 11:19:43;;;;;;;21.70;18.02;;;;;;;;;;5072501;28;20098;-64
2023/06/21 11:22:19;;;;;;;21.98;17.98;;;;;;;;;;5071817;28;20024;-61
2023/06/21 11:24:58;;;;;;;24.00;19.02;;;;;;;;;;5072106;28;20039;-61
2023/06/21 11:27:27;;;;;;;25.10;18.08;;;;;;;;;;5071748;28;20094;-62
2023/06/21 11:30:03;;;;;;;23.17;18.20;;;;;;;;;;5071596;28;20028;-61
2023/06/21 11:32:30;;;;;;;23.83;20.33;;;;;;;;;;5072250;28;20025;-61
2023/06/21 11:34:59;;;;;;;22.20;18.83;;;;;;;;;;5071285;28;20024;-61
2023/06/21 11:37:35;;;;;;;21.83;18.88;;;;;;;;;;5071727;28;20039;-61
2023/06/21 11:40:02;;;;;;;22.35;18.42;;;;;;;;;;5053598;28;20076;-63
2023/06/21 11:42:34;;;;;;;23.48;19.30;;;;;;;;;;5071339;28;20020;-63
2023/06/21 11:45:16;;;;;;;21.52;18.95;;;;;;;;;;5071502;28;20113;-62
2023/06/21 11:47:58;;;;;;;19.75;16.88;;;;;;;;;;5053664;28;20429;-63
2023/06/21 11:50:31;;;;;;;20.58;17.50;;;;;;;;;;5072218;28;20031;-63
2023/06/21 11:52:57;;;;;;;23.05;18.27;;;;;;;;;;5073421;28;20088;-61
2023/06/21 11:55:23;;;;;;;20.70;17.80;;;;;;;;;;5070641;28;20031;-61
2023/06/21 11:57:49;;;;;;;21.92;18.20;;;;;;;;;;5053093;28;20032;-63
2023/06/21 12:00:15;;;;;;;20.33;17.42;;;;;;;;;;5049099;28;20025;-60
2023/06/21 12:02:41;;;;;;;20.63;18.25;;;;;;;;;;4717894;28;10000363;-62
2023/06/21 12:05:07;;;;;;;21.92;18.08;;;;;;;;;;5076833;28;20579;-62
2023/06/21 12:07:34;;;;;;;22.88;19.10;;;;;;;;;;5068780;28;20037;-61
2023/06/21 12:10:01;;;;;;;21.10;18.77;;;;;;;;;;5067342;28;20024;-62
2023/06/21 12:12:27;;;;;;;22.90;18.80;;;;;;;;;;5079567;28;20503;-63
2023/06/21 12:14:56;;;;;;;19.85;17.73;;;;;;;;;;5078849;28;20598;-62
2023/06/21 12:17:22;;;;;;;19.60;16.33;;;;;;;;;;5053009;28;20119;-62
2023/06/21 12:19:48;;;;;;;19.52;16.58;;;;;;;;;;5050428;28;20150;-62
2023/06/21 12:22:14;;;;;;;18.23;16.23;;;;;;;;;;5067938;28;20074;-62
2023/06/21 12:24:40;;;;;;;18.70;15.75;;;;;;;;;;5067602;28;20039;-62
2023/06/21 12:27:06;;;;;;;19.98;16.70;;;;;;;;;;5058054;28;20539;-60
2023/06/21 12:29:32;;;;;;;19.27;16.08;;;;;;;;;;5085515;28;20108;-63
2023/06/21 12:31:59;;;;;;;18.80;16.48;;;;;;;;;;5088209;28;20089;-61
2023/06/21 12:34:25;;;;;;;18.65;16.02;;;;;;;;;;5088034;28;20106;-63
2023/06/21 12:36:52;;;;;;;19.15;16.23;;;;;;;;;;5071150;28;20020;-63
2023/06/21 12:39:19;;;;;;;20.10;16.33;;;;;;;;;;5068109;28;20032;-63
2023/06/21 12:41:44;;;;;;;19.90;17.33;;;;;;;;;;5068115;28;20039;-62
2023/06/21 12:44:19;;;;;;;19.48;16.60;;;;;;;;;;5067529;28;20040;-60
2023/06/21 12:46:45;;;;;;;18.95;16.80;;;;;;;;;;5067383;28;20028;-61
2023/06/21 12:49:13;;;;;;;18.63;16.63;;;;;;;;;;5068559;28;20086;-60
2023/06/21 12:51:39;;;;;;;20.77;16.27;;;;;;;;;;5069972;28;20021;-62
2023/06/21 12:54:06;;;;;;;21.77;16.70;;;;;;;;;;5070203;28;20025;-62
2023/06/21 12:56:40;;;;;;;19.50;16.30;;;;;;;;;;5073545;28;20024;-62
2023/06/21 12:59:06;;;;;;;19.92;16.15;;;;;;;;;;5088038;28;20088;-62
2023/06/21 13:01:33;;;;;;;20.17;16.58;;;;;;;;;;5061478;28;20025;-62
2023/06/21 13:04:00;;;;;;;18.52;16.52;;;;;;;;;;5089850;28;20036;-62
2023/06/21 13:06:26;;;;;;;18.38;16.00;;;;;;;;;;5084389;28;20425;-62
2023/06/21 13:08:56;;;;;;;19.13;15.90;;;;;;;;;;5065157;28;20021;-62
2023/06/21 13:11:23;;;;;;;19.05;15.45;;;;;;;;;;5064971;28;20080;-62
2023/06/21 13:13:49;;;;;;;17.85;15.02;;;;;;;;;;5080307;28;20044;-62
2023/06/21 13:16:16;;;;;;;18.98;15.75;;;;;;;;;;5078617;28;20013;-63
2023/06/21 13:18:44;;;;;;;18.25;15.90;;;;;;;;;;5075247;28;20051;-62
2023/06/21 13:21:11;;;;;;;20.17;15.32;;;;;;;;;;5074999;28;20500;-64
2023/06/21 13:23:37;;;;;;;17.90;15.00;;;;;;;;;;5081275;23;20132;-58
2023/06/21 13:26:03;;;;;;;17.60;14.63;;;;;;;;;;5030289;28;20160;-51
2023/06/21 13:28:29;;;;;;;17.83;14.77;;;;;;;;;;5044627;28;20484;-53
2023/06/21 13:30:55;;;;;;;17.55;14.75;;;;;;;;;;5034314;28;20033;-54
2023/06/21 13:33:21;;;;;;;17.95;14.32;;;;;;;;;;5055055;28;20028;-55
2023/06/21 13:35:47;;;;;;;18.92;15.68;;;;;;;;;;5068410;28;20024;-58
2023/06/21 13:38:16;;;;;;;18.38;15.48;;;;;;;;;;5060427;28;20405;-58
2023/06/21 13:40:43;;;;;;;18.98;14.63;;;;;;;;;;5074170;28;20043;-56
2023/06/21 13:43:09;;;;;;;17.60;14.45;;;;;;;;;;5055776;28;20031;-57
2023/06/21 13:45:35;;;;;;;17.67;15.02;;;;;;;;;;5073327;28;20028;-58
2023/06/21 13:48:02;;;;;;;17.92;14.80;;;;;;;;;;5073977;28;20024;-59
2023/06/21 13:50:28;;;;;;;17.77;14.02;;;;;;;;;;5073838;28;20093;-58
2023/06/21 13:52:54;;;;;;;16.95;14.05;;;;;;;;;;5073590;28;20373;-57
2023/06/21 13:55:20;;;;;;;17.45;13.90;;;;;;;;;;5073711;28;20020;-57
2023/06/21 13:57:51;;;;;;;17.13;13.35;;;;;;;;;;5055637;28;20021;-61
2023/06/21 14:00:18;;;;;;;16.67;13.73;;;;;;;;;;5055996;28;20469;-57
2023/06/21 14:02:47;;;;;;;18.23;14.27;;;;;;;;;;5060763;28;20032;-55
2023/06/21 14:05:14;;;;;;;18.08;14.60;;;;;;;;;;5053236;28;20036;-58
2023/06/21 14:07:42;;;;;;;17.83;13.95;;;;;;;;;;5052681;28;20118;-58
2023/06/21 14:10:09;;;;;;;18.60;14.93;;;;;;;;;;5037738;28;20560;-58
2023/06/21 14:12:35;;;;;;;17.33;13.80;;;;;;;;;;5085147;28;20032;-58
2023/06/21 14:15:01;;;;;;;17.20;14.63;;;;;;;;;;5087596;28;20021;-57